Data for 07/24/2014

Time Sea-Level Adjusted Pressure Absolute Pressure Temperature Relative Humidity Dew Point   
(mb) (inHg) (mb) (inHg) (C) (F) (%) (C) (F)
00:05 1016 30 845 24.95 18.7 65.6 35 2.9 37.2
00:10 1016 30 845 24.95 18.6 65.4 33 2 35.5
00:15 1016 30 845 24.95 18.3 65 33 1.9 35.4
00:20 1016 30 845 24.95 17.9 64.2 34 2.1 35.7
00:25 1016 30 845 24.95 17.6 63.8 36 2.5 36.5
00:30 1016 30 845 24.95 17.2 63 37 2.7 36.8
00:35 1016 30 845 24.95 16.7 62 40 3 37.3
00:40 1016 30 845 24.95 16.4 61.6 39 2.5 36.6
00:45 1016 30 845 24.95 16.6 61.8 35 1 33.8
00:50 1016 30 845 24.95 17.3 63.1 34 1.5 34.6
00:55 1016 30 845 24.95 17.1 62.8 36 1.9 35.4
01:00 1016 30 845 24.95 16.8 62.2 36 1.6 34.8
01:05 1016 30 845 24.95 16.9 62.4 34 0.9 33.6
01:10 1016 30 845 24.95 17.5 63.6 32 0.7 33.3
01:15 1016 30 845 24.95 17.7 63.9 32 0.8 33.4
01:20 1016 30 845 24.95 17.5 63.6 32 0.6 33.1
01:25 1016 30 845 24.95 17.6 63.6 32 0.8 33.5
01:30 1016 30 845 24.95 17.5 63.5 34 1.5 34.6
01:35 1016 30 845 24.95 17 62.7 36 2 35.5
01:40 1016 30 845 24.95 16.6 61.8 41 3.5 38.3
01:45 1016 30 845 24.95 16.6 61.8 40 3 37.5
01:50 1016 30 845 24.95 16.3 61.3 40 2.9 37.1
01:55 1016 30 845 24.95 16.2 61.1 41 3.1 37.5
02:00 1016 30 845 24.95 16.1 61 40 2.4 36.4
02:05 1016 30 845 24.95 16.8 62.3 39 2.9 37.1
02:10 1017 30.03 846 24.98 16.9 62.5 41 3.6 38.4
02:15 1016 30 846 24.98 16.8 62.3 43 4.4 40
02:20 1016 30 845 24.95 16.2 61.1 45 4.3 39.7
02:25 1016 30 845 24.95 16.5 61.6 44 4.1 39.4
02:30 1016 30 846 24.98 15.8 60.4 48 4.7 40.5
02:35 1016 30 845 24.95 15.7 60.3 45 3.9 39.1
02:40 1016 30 846 24.98 16.5 61.6 42 3.7 38.7
02:45 1017 30.03 846 24.98 17 62.7 47 5.7 42.3
02:50 1017 30.03 846 24.98 17.2 63 42 4.2 39.5
02:55 1016 30 846 24.98 17.3 63.1 43 4.6 40.3
03:00 1016 30 845 24.95 16.4 61.6 43 3.8 38.9
03:05 1016 30 845 24.95 16.1 60.9 44 3.9 39.1
03:10 1016 30 846 24.98 16.2 61.2 50 6 42.8
03:15 1016 30 846 24.98 15.8 60.5 49 5.2 41.4
03:20 1016 30 846 24.98 15.6 60.1 47 4.3 39.8
03:25 1017 30.03 846 24.98 16.1 61.1 47 4.9 40.8
03:30 1017 30.03 846 24.98 16.3 61.3 47 5 41
03:35 1016 30 845 24.95 15.8 60.4 49 5.2 41.4
03:40 1016 30 845 24.95 15.4 59.6 52 5.5 41.9
03:45 1016 30 845 24.95 15.7 60.3 43 3.3 38
03:50 1016 30 845 24.95 16.5 61.6 42 3.6 38.6
03:55 1017 30.03 846 24.98 16.6 62 42 3.6 38.5
04:00 1017 30.03 846 24.98 16.7 62.1 45 4.7 40.4
04:05 1016 30 845 24.95 16.5 61.7 42 3.5 38.3
04:10 1016 30 845 24.95 16.6 62 42 3.9 39.1
04:15 1016 30 845 24.95 16.8 62.2 47 5.4 41.6
04:20 1016 30 845 24.95 16.5 61.7 46 5 40.9
04:25 1016 30 845 24.95 16.2 61.2 45 4.4 39.8
04:30 1016 30 845 24.95 16.3 61.4 45 4.4 40
04:35 1016 30 845 24.95 16.5 61.7 44 4.5 40.1
04:40 1016 30 845 24.95 16.7 62 43 4.2 39.6
04:45 1016 30 845 24.95 16.9 62.4 43 4.4 40
04:50 1016 30 845 24.95 16.9 62.4 48 5.9 42.6
04:55 1016 30 845 24.95 17 62.7 44 4.7 40.4
05:00 1016 30 845 24.95 16.7 62 45 4.8 40.6
05:05 1016 30 845 24.95 16.6 61.8 44 4.3 39.8
05:10 1016 30 845 24.95 16.9 62.3 44 4.6 40.4
05:15 1016 30 845 24.95 17 62.5 44 4.6 40.2
05:20 1016 30 845 24.95 17.1 62.8 44 5 40.9
05:25 1016 30 845 24.95 17 62.6 47 5.8 42.4
05:30 1016 30 845 24.95 16.8 62.2 45 5 41
05:35 1016 30 845 24.95 16.8 62.2 44 4.7 40.4
05:40 1016 30 845 24.95 16.9 62.3 47 5.6 42
05:45 1016 30 846 24.98 16.6 61.9 49 5.8 42.5
05:50 1017 30.03 846 24.98 15.6 60 55 6.6 43.8
05:55 1017 30.03 846 24.98 15.5 59.9 54 6.2 43.2
06:00 1017 30.03 846 24.98 15.6 60.1 53 6.3 43.3
06:05 1017 30.03 846 24.98 15.8 60.4 53 6.3 43.3
06:10 1017 30.03 846 24.98 16.1 61 53 6.6 43.8
06:15 1017 30.03 846 24.98 16.1 61 52 6.5 43.7
06:20 1017 30.03 846 24.98 15.8 60.4 55 6.8 44.3
06:25 1017 30.03 846 24.98 15.8 60.5 54 6.5 43.7
06:30 1017 30.03 846 24.98 15.8 60.4 55 6.8 44.2
06:35 1017 30.03 846 24.98 15.9 60.7 54 6.8 44.3
06:40 1017 30.03 846 24.98 16.2 61.1 58 7.9 46.3
06:45 1017 30.03 846 24.98 16.3 61.3 59 8.3 47
06:50 1017 30.03 846 24.98 16.6 61.8 58 8.3 47
06:55 1017 30.03 846 24.98 16.8 62.3 57 8.4 47.1
07:00 1017 30.03 846 24.98 17.1 62.8 57 8.7 47.6
07:05 1017 30.03 846 24.98 17.3 63.1 57 8.7 47.7
07:10 1017 30.03 847 25.01 17.6 63.7 56 9 48.1
07:15 1017 30.03 847 25.01 18 64.5 55 8.9 48.1
07:20 1017 30.03 847 25.01 18.4 65.2 54 9 48.2
07:25 1017 30.03 847 25.01 18.9 66.1 51 8.6 47.5
07:30 1017 30.03 847 25.01 18.7 65.7 51 8.6 47.4
07:35 1017 30.03 847 25.01 19.2 66.5 50 8.6 47.5
07:40 1017 30.03 847 25.01 19.4 66.9 49 8.6 47.6
07:45 1017 30.03 847 25.01 19.3 66.7 50 8.7 47.7
07:50 1017 30.03 847 25.01 19.2 66.5 50 8.5 47.3
07:55 1017 30.03 847 25.01 19.5 67.2 49 8.6 47.5
08:00 1017 30.03 847 25.01 19.7 67.5 48 8.7 47.6
08:05 1017 30.03 847 25.01 20 67.9 49 9.1 48.4
08:10 1017 30.03 847 25.01 20.3 68.5 46 8.5 47.2
08:15 1017 30.03 846 24.98 21 69.7 46 9.1 48.4
08:20 1017 30.03 846 24.98 20.9 69.7 47 9.3 48.7
08:25 1017 30.03 846 24.98 20.5 68.9 47 9 48.3
08:30 1017 30.03 847 25.01 20 68 48 8.9 48
08:35 1017 30.03 846 24.98 20.5 68.9 47 9 48.2
08:40 1017 30.03 846 24.98 21 69.8 45 8.7 47.7
08:45 1017 30.03 846 24.98 21.1 70.1 45 8.9 48
08:50 1017 30.03 846 24.98 21.1 69.9 46 9.1 48.4
08:55 1017 30.03 846 24.98 20.9 69.7 47 9.5 49
09:00 1017 30.03 846 24.98 21.5 70.8 44 8.8 47.8
09:05 1017 30.03 846 24.98 21.9 71.4 44 9.3 48.7
09:10 1017 30.03 846 24.98 22.4 72.3 42 9.1 48.3
09:15 1017 30.03 846 24.98 22.4 72.3 43 9.3 48.8
09:20 1017 30.03 846 24.98 22.5 72.4 42 9.1 48.4
09:25 1017 30.03 846 24.98 23 73.4 39 8.5 47.3
09:30 1017 30.03 846 24.98 22.9 73.1 40 8.6 47.5
09:35 1017 30.03 846 24.98 23.1 73.5 39 8.5 47.3
09:40 1017 30.03 846 24.98 23.3 74 37 8.1 46.6
09:45 1017 30.03 846 24.98 23.7 74.6 37 8.4 47.1
09:50 1016 30 846 24.98 23.8 74.9 37 8.3 46.9
09:55 1016 30 846 24.98 23.9 75.1 35 7.9 46.3
10:00 1016 30 846 24.98 24.1 75.3 35 7.8 46.1
10:05 1016 30 846 24.98 24 75.2 36 8.3 46.9
10:10 1016 30 846 24.98 24.5 76.1 34 7.9 46.2
10:15 1016 30 845 24.95 24.7 76.4 36 8.8 47.9
10:20 1016 30 845 24.95 24.8 76.6 35 8.6 47.5
10:25 1016 30 845 24.95 24.5 76.1 36 8.8 47.8
10:30 1016 30 845 24.95 24.4 75.9 35 8.3 46.9
10:35 1016 30 845 24.95 25.1 77.1 35 8.6 47.4
10:40 1016 30 845 24.95 25 77 35 8.7 47.6
10:45 1016 30 845 24.95 24.8 76.7 32 7.4 45.3
10:50 1016 30 845 24.95 25 76.9 32 7.4 45.3
10:55 1016 30 845 24.95 25 77 33 8 46.5
11:00 1016 30 845 24.95 25.1 77.1 34 8.4 47.1
11:05 1016 30 845 24.95 25.3 77.5 33 8.3 46.9
11:10 1016 30 845 24.95 25.3 77.6 34 8.4 47.2
11:15 1016 30 845 24.95 25.4 77.7 34 8.4 47.2
11:20 1016 30 845 24.95 25.5 77.8 33 8.3 46.9
11:25 1016 30 845 24.95 25.8 78.5 32 8.2 46.8
11:30 1016 30 845 24.95 25.9 78.5 32 8.3 47
11:35 1016 30 845 24.95 26 78.7 32 8.4 47
11:40 1016 30 845 24.95 26.2 79.2 32 8.3 47
11:45 1016 30 845 24.95 25.7 78.3 33 8.6 47.4
11:50 1016 30 845 24.95 25.3 77.5 33 8 46.4
11:55 1016 30 845 24.95 25.5 77.9 32 7.8 46
12:00 1016 30 845 24.95 25.6 78.1 32 8 46.4
12:05 1016 30 845 24.95 25.9 78.6 31 7.6 45.7
12:10 1016 30 845 24.95 26.1 79 32 8.3 46.9
12:15 1016 30 845 24.95 26.1 79.1 31 8 46.4
12:20 1016 30 845 24.95 25.7 78.3 31 7.5 45.5
12:25 1016 30 845 24.95 25.5 78 31 7.2 45
12:30 1016 30 845 24.95 25.7 78.2 31 7.5 45.5
12:35 1016 30 846 24.98 24.9 76.9 31 6.8 44.2
12:40 1016 30 846 24.98 24.9 76.7 32 7.1 44.8
12:45 1016 30 846 24.98 25.1 77.1 30 6.7 44
12:50 1016 30 846 24.98 25.2 77.4 31 6.9 44.5
12:55 1016 30 846 24.98 25.3 77.6 29 6.4 43.5
13:00 1016 30 846 24.98 25.5 77.9 31 7.3 45.1
13:05 1016 30 846 24.98 25.6 78 31 7.2 45
13:10 1016 30 846 24.98 25.9 78.7 30 7.1 44.9
13:15 1016 30 846 24.98 26 78.8 28 6.5 43.7
13:20 1016 30 846 24.98 25.8 78.4 30 7.3 45.2
13:25 1016 30 846 24.98 26.2 79.2 29 6.9 44.4
13:30 1017 30.03 846 24.98 26.3 79.3 29 7 44.5
13:35 1017 30.03 846 24.98 25.7 78.3 29 6.6 43.9
13:40 1017 30.03 846 24.98 25.9 78.6 27 5.8 42.4
13:45 1016 30 846 24.98 26.6 79.9 26 5.7 42.2
13:50 1016 30 846 24.98 27.5 81.4 24 5.3 41.5
13:55 1016 30 846 24.98 27.8 82.1 22 4.4 40
14:00 1016 30 846 24.98 28.4 83.1 22 4.6 40.4
14:05 1016 30 845 24.95 28 82.4 23 5.2 41.4
14:10 1016 30 846 24.98 27.8 82 24 5.6 42.1
14:15 1016 30 846 24.98 27.7 81.8 25 5.9 42.7
14:20 1016 30 846 24.98 27.5 81.5 26 6.3 43.4
14:25 1016 30 846 24.98 26.8 80.3 27 6.4 43.5
14:30 1016 30 846 24.98 26 78.9 28 6.4 43.5
14:35 1016 30 846 24.98 25.6 78.2 30 7.1 44.7
14:40 1017 30.03 846 24.98 24.5 76.1 31 6.4 43.5
14:45 1017 30.03 846 24.98 24.7 76.5 30 6.2 43.2
14:50 1017 30.03 846 24.98 24.9 76.8 30 6.4 43.5
14:55 1017 30.03 846 24.98 25.1 77.2 30 6.4 43.5
15:00 1017 30.03 846 24.98 24.5 76 30 6 42.8
15:05 1017 30.03 846 24.98 24.6 76.2 29 5.6 42
15:10 1017 30.03 846 24.98 24.8 76.6 28 5.5 42
15:15 1017 30.03 846 24.98 25 76.9 27 5.1 41.1
15:20 1017 30.03 846 24.98 24.8 76.6 29 5.5 42
15:25 1017 30.03 846 24.98 25.3 77.5 27 5 41.1
15:30 1017 30.03 846 24.98 25.5 78 25 4.4 40
15:35 1017 30.03 846 24.98 25.4 77.7 25 4.3 39.7
15:40 1017 30.03 846 24.98 25.7 78.2 25 4.3 39.8
15:45 1017 30.03 846 24.98 25.3 77.5 25 3.8 38.9
15:50 1017 30.03 846 24.98 24.9 76.9 25 4 39.3
15:55 1017 30.03 846 24.98 24.7 76.5 25 3.6 38.4
16:00 1017 30.03 846 24.98 24.7 76.5 25 3.8 38.9
16:05 1017 30.03 846 24.98 24.9 76.9 25 4.1 39.3
16:10 1017 30.03 846 24.98 25.4 77.7 24 3.8 38.8
16:15 1017 30.03 846 24.98 25.3 77.6 25 4.1 39.4
16:20 1017 30.03 846 24.98 24.8 76.6 25 3.6 38.4
16:25 1017 30.03 846 24.98 24.9 76.8 24 3.2 37.8
16:30 1017 30.03 846 24.98 24.9 76.9 24 3.4 38
16:35 1017 30.03 846 24.98 24.9 76.8 23 2.8 37.1
16:40 1017 30.03 846 24.98 24.7 76.5 25 3.5 38.2
16:45 1017 30.03 847 25.01 24.6 76.3 23 2.2 35.9
16:50 1017 30.03 847 25.01 24.8 76.7 23 2.4 36.3
16:55 1017 30.03 847 25.01 24.8 76.6 22 2.2 35.9
17:00 1017 30.03 847 25.01 25.1 77.1 22 1.9 35.3
17:05 1017 30.03 847 25.01 24.8 76.7 21 1.2 34.1
17:10 1017 30.03 847 25.01 24.6 76.3 23 2.1 35.8
17:15 1017 30.03 847 25.01 24.7 76.4 23 2.3 36.1
17:20 1017 30.03 847 25.01 24.6 76.3 22 2 35.6
17:25 1017 30.03 847 25.01 24.8 76.6 22 1.7 35
17:30 1017 30.03 847 25.01 24.5 76.1 22 1.7 35
17:35 1017 30.03 847 25.01 24.6 76.3 21 1.3 34.3
17:40 1017 30.03 847 25.01 24 75.2 22 1.2 34.1
17:45 1017 30.03 847 25.01 24.1 75.3 22 1 33.8
17:50 1017 30.03 847 25.01 24.2 75.6 21 0.7 33.3
17:55 1017 30.03 847 25.01 24.5 76.1 23 2 35.7
18:00 1017 30.03 847 25.01 24.1 75.5 22 1.3 34.4
18:05 1017 30.03 847 25.01 23.8 74.9 23 1.6 34.9
18:10 1017 30.03 847 25.01 23.9 74.9 22 1.1 34
18:15 1017 30.03 847 25.01 23.9 75 21 0.5 32.8
18:20 1017 30.03 847 25.01 23.7 74.6 22 0.7 33.3
18:25 1017 30.03 847 25.01 23.4 74 22 0.5 32.8
18:30 1017 30.03 847 25.01 23.2 73.8 22 0.6 33
18:35 1017 30.03 847 25.01 23 73.5 22 0.5 32.8
18:40 1017 30.03 847 25.01 22.9 73.3 23 1 33.9
18:45 1017 30.03 847 25.01 22.8 73 22 0.4 32.7
18:50 1017 30.03 847 25.01 22.6 72.8 23 0.6 33.1
18:55 1017 30.03 847 25.01 22.5 72.5 24 1 33.8
19:00 1017 30.03 847 25.01 22.5 72.4 24 1.1 34.1
19:05 1017 30.03 847 25.01 22.4 72.3 23 0.5 33
19:10 1018 30.06 847 25.01 22.1 71.8 23 0.3 32.6
19:15 1018 30.06 847 25.01 21.8 71.3 23 0.2 32.4
19:20 1018 30.06 847 25.01 21.8 71.2 23 0.1 32.2
19:25 1018 30.06 847 25.01 21.6 70.9 24 0.2 32.4
19:30 1018 30.06 847 25.01 21.4 70.5 24 0.4 32.7
19:35 1018 30.06 847 25.01 21.2 70.1 24 -0.2 31.6
19:40 1018 30.06 847 25.01 21 69.9 24 -0 32
19:45 1018 30.06 847 25.01 20.9 69.7 25 0.2 32.4
19:50 1018 30.06 847 25.01 20.7 69.3 26 0.6 33.1
19:55 1018 30.06 847 25.01 20.5 69 25 0.1 32.1
20:00 1018 30.06 847 25.01 20.4 68.7 26 0.4 32.7
20:05 1018 30.06 847 25.01 20.3 68.5 27 0.8 33.4
20:10 1018 30.06 847 25.01 19.9 67.8 29 1.6 34.8
20:15 1018 30.06 847 25.01 19.7 67.5 30 1.7 35.1
20:20 1018 30.06 847 25.01 19.6 67.4 29 1.1 33.9
20:25 1018 30.06 847 25.01 19.5 67.2 30 1.6 34.8
20:30 1018 30.06 847 25.01 19.3 66.8 30 1.6 34.9
20:35 1018 30.06 848 25.04 18.9 66.1 35 3.2 37.8
20:40 1018 30.06 848 25.04 18.4 65.1 38 3.9 39
20:45 1018 30.06 848 25.04 17.7 63.9 39 3.6 38.4
20:50 1019 30.09 848 25.04 17.4 63.3 40 3.6 38.5
20:55 1019 30.09 848 25.04 17.2 62.9 40 3.6 38.5
21:00 1019 30.09 848 25.04 17.1 62.7 40 3.3 38
21:05 1019 30.09 848 25.04 17.3 63.1 37 2.7 36.8
21:10 1019 30.09 848 25.04 17.4 63.3 37 2.5 36.6
21:15 1019 30.09 848 25.04 16.6 61.9 49 5.9 42.7
21:20 1019 30.09 848 25.04 15.5 60 44 3.4 38
21:25 1019 30.09 848 25.04 15.9 60.7 46 4.4 39.9
21:30 1019 30.09 848 25.04 15.8 60.4 43 3.3 38
21:35 1019 30.09 848 25.04 16 60.9 43 3.7 38.7
21:40 1019 30.09 848 25.04 16 60.7 42 3 37.4
21:45 1019 30.09 848 25.04 15.8 60.4 46 4.2 39.6
21:50 1019 30.09 848 25.04 15 58.9 46 3.6 38.4
21:55 1019 30.09 848 25.04 14.7 58.4 46 3.4 38.2
22:00 1019 30.09 849 25.07 14.6 58.3 44 2.6 36.7
22:05 1019 30.09 849 25.07 14.9 58.8 41 1.7 35.1
22:10 1019 30.09 849 25.07 15.2 59.4 39 1.5 34.7
22:15 1019 30.09 849 25.07 15.5 59.8 34 -0.2 31.7
22:20 1020 30.12 849 25.07 15.7 60.2 33 -0.5 31
22:25 1020 30.12 849 25.07 15.8 60.4 32 -0.8 30.6
22:30 1020 30.12 849 25.07 15.9 60.5 32 -0.8 30.5
22:35 1020 30.12 849 25.07 15.7 60.2 33 -0.7 30.8
22:40 1020 30.12 849 25.07 15.1 59.2 35 -0.3 31.5
22:45 1020 30.12 849 25.07 14.3 57.8 39 0.6 33.1
22:50 1020 30.12 849 25.07 13.7 56.7 40 0.3 32.5
22:55 1020 30.12 849 25.07 13.5 56.4 39 0 32
23:00 1020 30.12 849 25.07 13.6 56.5 39 -0 32
23:05 1020 30.12 849 25.07 13.7 56.7 37 -0.7 30.8
23:10 1020 30.12 849 25.07 13.9 57 41 0.8 33.5
23:15 1020 30.12 849 25.07 13.5 56.4 41 0.5 32.9
23:20 1020 30.12 849 25.07 13.6 56.4 39 0 32.1
23:25 1020 30.12 849 25.07 13.6 56.5 41 0.5 32.9
23:30 1020 30.12 849 25.07 13.3 55.9 45 1.7 35.1
23:35 1020 30.12 849 25.07 12.6 54.7 47 1.7 35.1
23:40 1020 30.12 849 25.07 12.5 54.4 48 1.8 35.3
23:45 1020 30.12 850 25.1 12.4 54.3 49 1.9 35.5
23:50 1020 30.12 850 25.1 12.2 54 49 2 35.6
23:55 1020 30.12 850 25.1 12.1 53.9 49 1.8 35.3
24:00 1020 30.12 850 25.1 12 53.7 50 2 35.5